Time;durP1;ratioP1;P1;durP2;ratioP2;P2;SDS_P1;SDS_P2;PMS_P1;PMS_P2;Temp;Humidity;BMP_temperature;BMP_pressure;BME280_temperature;BME280_humidity;BME280_pressure;Samples;Min_cycle;Max_cycle;Signal;HPM_P1;HPM_P2
2022/10/12 00:01:58;;;;;;;11.33;6.03;;;14.80;99.90;;;;;;5039925;28;20203;-75
2022/10/12 00:04:24;;;;;;;14.93;5.63;;;14.80;99.90;;;;;;5024478;28;20733;-70
2022/10/12 00:06:49;;;;;;;10.00;5.37;;;14.80;99.90;;;;;;5037238;28;20962;-75
2022/10/12 00:09:15;;;;;;;8.67;5.70;;;14.70;99.90;;;;;;5035989;28;20203;-74
2022/10/12 00:11:41;;;;;;;8.30;5.70;;;14.80;99.90;;;;;;5036591;28;20606;-75
2022/10/12 00:14:06;;;;;;;8.03;5.40;;;14.80;99.90;;;;;;5034823;28;20660;-72
2022/10/12 00:16:33;;;;;;;10.90;6.77;;;14.80;99.90;;;;;;5034597;28;20215;-74
2022/10/12 00:18:59;;;;;;;8.63;5.60;;;14.70;99.90;;;;;;5018130;28;20211;-71
2022/10/12 00:21:26;;;;;;;8.30;5.20;;;14.70;99.90;;;;;;5035365;28;20425;-72
2022/10/12 00:23:54;;;;;;;8.13;5.73;;;14.70;99.90;;;;;;5037313;28;20222;-74
2022/10/12 00:26:22;;;;;;;7.10;4.60;;;14.70;99.90;;;;;;5037903;28;20546;-76
2022/10/12 00:28:52;;;;;;;12.10;5.70;;;14.70;99.90;;;;;;5034506;28;20459;-73
2022/10/12 00:31:19;;;;;;;10.83;6.37;;;14.70;99.90;;;;;;5017166;28;20434;-73
2022/10/12 00:33:46;;;;;;;6.53;4.63;;;14.60;99.90;;;;;;5035654;28;20549;-72
2022/10/12 00:36:26;;;;;;;7.07;5.40;;;14.60;99.90;;;;;;5037927;28;22420;-73
2022/10/12 00:38:53;;;;;;;8.77;5.60;;;14.60;99.90;;;;;;5037246;28;20473;-73
2022/10/12 00:41:22;;;;;;;8.10;5.07;;;14.50;99.90;;;;;;5037828;28;20442;-71
2022/10/12 00:43:49;;;;;;;10.77;5.30;;;14.50;99.90;;;;;;5033639;28;20513;-73
2022/10/12 00:46:28;;;;;;;8.20;4.97;;;14.50;99.90;;;;;;5032877;28;20454;-72
2022/10/12 00:49:08;;;;;;;8.40;5.43;;;14.40;99.90;;;;;;5018315;28;21097;-74
2022/10/12 00:51:34;;;;;;;7.97;5.03;;;14.40;99.90;;;;;;5035708;28;20438;-75
2022/10/12 00:54:05;;;;;;;7.60;5.23;;;14.40;99.90;;;;;;5034744;28;20454;-74
2022/10/12 00:56:34;;;;;;;7.60;5.40;;;14.40;99.90;;;;;;5030504;28;20626;-73
2022/10/12 00:59:03;;;;;;;13.97;5.50;;;14.30;99.90;;;;;;5032731;28;20465;-74
2022/10/12 01:01:32;;;;;;;14.40;5.93;;;14.30;99.90;;;;;;5015255;28;20439;-71
2022/10/12 01:03:57;;;;;;;7.27;5.00;;;14.30;99.90;;;;;;5037409;28;20908;-72
2022/10/12 01:06:23;;;;;;;12.23;5.20;;;14.20;99.90;;;;;;5034381;28;20437;-73
2022/10/12 01:08:49;;;;;;;11.67;5.03;;;14.20;99.90;;;;;;5028600;28;20204;-71
2022/10/12 01:11:14;;;;;;;17.53;5.33;;;14.20;99.90;;;;;;5028957;28;20249;-69
2022/10/12 01:13:40;;;;;;;8.30;5.10;;;14.10;99.90;;;;;;5033603;28;20874;-70
2022/10/12 01:16:24;;;;;;;8.00;5.60;;;14.10;99.90;;;;;;5033267;28;20191;-71
2022/10/12 01:19:09;;;;;;;6.80;5.40;;;14.10;99.90;;;;;;5031912;28;20703;-71
2022/10/12 01:21:42;;;;;;;12.00;4.80;;;14.10;99.90;;;;;;5039455;28;20442;-72
2022/10/12 01:24:29;;;;;;;8.13;5.53;;;14.10;99.90;;;;;;5037857;28;20561;-71
2022/10/12 01:27:32;;;;;;;9.50;5.77;;;14.00;99.90;;;;;;5031259;28;20529;-73
2022/10/12 01:30:12;;;;;;;11.10;5.57;;;13.90;99.90;;;;;;5031618;28;21051;-71
2022/10/12 01:32:59;;;;;;;14.67;5.83;;;13.90;99.90;;;;;;5030504;28;20900;-70
2022/10/12 01:36:05;;;;;;;10.20;5.00;;;13.90;99.90;;;;;;5033093;28;20497;-74
2022/10/12 01:38:44;;;;;;;11.87;5.30;;;13.90;99.90;;;;;;4940591;28;20525;-72
2022/10/12 01:41:25;;;;;;;11.10;5.47;;;13.80;99.90;;;;;;5035031;28;20446;-72
2022/10/12 01:43:51;;;;;;;8.97;5.30;;;13.90;99.90;;;;;;5029103;28;20502;-74
2022/10/12 01:46:17;;;;;;;7.93;5.27;;;13.80;99.90;;;;;;5035898;28;20438;-73
2022/10/12 01:48:45;;;;;;;9.70;5.53;;;13.80;99.90;;;;;;5032993;28;20555;-73
2022/10/12 01:51:16;;;;;;;12.77;5.60;;;13.80;99.90;;;;;;5038071;28;20184;-73
2022/10/12 01:53:56;;;;;;;12.63;5.63;;;13.80;99.90;;;;;;5035997;28;20527;-71
2022/10/12 01:56:27;;;;;;;7.40;5.17;;;13.80;99.90;;;;;;5030573;28;20437;-71
2022/10/12 01:58:56;;;;;;;7.40;4.80;;;13.80;99.90;;;;;;5033789;28;20493;-73
2022/10/12 02:01:42;;;;;;;8.33;4.87;;;13.80;99.90;;;;;;5038592;28;20534;-73
2022/10/12 02:04:19;;;;;;;7.57;5.17;;;13.70;99.90;;;;;;5017407;28;20549;-74
2022/10/12 02:07:13;;;;;;;10.97;4.80;;;13.80;99.90;;;;;;5020652;28;20471;-74
2022/10/12 02:09:40;;;;;;;8.37;4.53;;;13.70;99.90;;;;;;5008606;28;20466;-73
2022/10/12 02:12:15;;;;;;;14.97;5.53;;;13.70;99.90;;;;;;5015974;28;20450;-74
2022/10/12 02:14:45;;;;;;;6.97;5.40;;;13.60;99.90;;;;;;5031921;28;20890;-72
2022/10/12 02:17:15;;;;;;;9.80;3.80;;;13.60;99.90;;;;;;5030700;28;21955;-73
2022/10/12 02:19:45;;;;;;;8.20;4.43;;;13.70;99.90;;;;;;5032675;28;20463;-74
2022/10/12 02:22:11;;;;;;;12.60;4.87;;;13.60;99.90;;;;;;5031248;28;20449;-74
2022/10/12 02:24:40;;;;;;;7.73;5.07;;;13.60;99.90;;;;;;5034855;28;20882;-72
2022/10/12 02:27:09;;;;;;;9.70;4.60;;;13.60;99.90;;;;;;5030919;28;20454;-75
2022/10/12 02:29:40;;;;;;;7.53;4.20;;;13.60;99.90;;;;;;5034356;28;20859;-74
2022/10/12 02:32:12;;;;;;;11.80;4.63;;;13.60;99.90;;;;;;5033134;28;20559;-72
2022/10/12 02:35:00;;;;;;;16.20;5.37;;;13.50;99.90;;;;;;5034130;28;20462;-72
2022/10/12 02:37:42;;;;;;;6.40;4.70;;;13.50;99.90;;;;;;5031504;28;20445;-76
2022/10/12 02:40:20;;;;;;;11.63;4.80;;;13.60;99.90;;;;;;5013290;28;20462;-71
2022/10/12 02:42:52;;;;;;;7.40;4.53;;;13.50;99.90;;;;;;5038299;28;20444;-73
2022/10/12 02:45:20;;;;;;;12.67;6.37;;;13.50;99.90;;;;;;5018392;28;20859;-72
2022/10/12 02:47:49;;;;;;;10.80;4.50;;;13.50;99.90;;;;;;5027612;28;20979;-72
2022/10/12 02:50:16;;;;;;;7.70;4.40;;;13.50;99.90;;;;;;5029906;28;20470;-72
2022/10/12 02:52:44;;;;;;;5.93;4.57;;;13.50;99.90;;;;;;5030585;28;20958;-72
2022/10/12 02:55:10;;;;;;;8.00;4.50;;;13.50;99.90;;;;;;5033002;28;21142;-71
2022/10/12 02:57:36;;;;;;;6.30;4.60;;;13.50;99.90;;;;;;5035215;28;20484;-75
2022/10/12 03:00:02;;;;;;;7.60;4.20;;;13.50;99.90;;;;;;5030908;28;20204;-73
2022/10/12 03:02:28;;;;;;;9.93;4.57;;;13.50;99.90;;;;;;5028313;28;20261;-72
2022/10/12 03:04:53;;;;;;;10.63;3.80;;;13.50;99.90;;;;;;5012778;28;20549;-74
2022/10/12 03:07:19;;;;;;;8.60;4.10;;;13.50;99.90;;;;;;5017848;28;20183;-75
2022/10/12 03:09:45;;;;;;;10.43;4.67;;;13.50;99.90;;;;;;5028588;28;20231;-72
2022/10/12 03:12:10;;;;;;;6.50;4.23;;;13.40;99.90;;;;;;5032694;28;20258;-72
2022/10/12 03:14:36;;;;;;;13.00;5.30;;;13.40;99.90;;;;;;5015898;28;20187;-72
2022/10/12 03:17:03;;;;;;;7.67;4.00;;;13.40;99.90;;;;;;5029473;28;20180;-70
2022/10/12 03:19:31;;;;;;;6.63;4.30;;;13.40;99.90;;;;;;5033448;28;20268;-70
2022/10/12 03:21:57;;;;;;;7.50;4.53;;;13.40;99.90;;;;;;5028311;28;20462;-72
2022/10/12 03:24:22;;;;;;;13.50;4.60;;;13.30;99.90;;;;;;5028899;28;21024;-73
2022/10/12 03:26:48;;;;;;;15.80;4.83;;;13.30;99.90;;;;;;5028496;28;20246;-72
2022/10/12 03:29:13;;;;;;;6.77;4.03;;;13.30;99.90;;;;;;5019169;28;20595;-73
2022/10/12 03:31:39;;;;;;;8.17;4.70;;;13.30;99.90;;;;;;5017638;28;20180;-72
2022/10/12 03:34:05;;;;;;;7.33;4.13;;;13.30;99.90;;;;;;5035054;28;20202;-72
2022/10/12 03:36:31;;;;;;;13.93;4.87;;;13.30;99.90;;;;;;5035648;28;20195;-71
2022/10/12 03:38:56;;;;;;;6.10;4.47;;;13.20;99.90;;;;;;5036806;28;20210;-73
2022/10/12 03:41:22;;;;;;;11.43;4.77;;;13.20;99.90;;;;;;5038038;28;21262;-73
2022/10/12 03:43:47;;;;;;;11.10;5.40;;;13.20;99.90;;;;;;5034511;28;20207;-72
2022/10/12 03:46:13;;;;;;;6.50;4.40;;;13.10;99.90;;;;;;5011295;28;20246;-73
2022/10/12 03:48:39;;;;;;;9.20;4.83;;;13.10;99.90;;;;;;5036645;28;20219;-71
2022/10/12 03:51:05;;;;;;;9.43;5.07;;;13.10;99.90;;;;;;5033524;28;20195;-72
2022/10/12 03:53:30;;;;;;;7.63;4.23;;;13.10;99.90;;;;;;5038614;28;20287;-73
2022/10/12 03:55:56;;;;;;;9.13;5.03;;;13.10;99.90;;;;;;5038004;28;20553;-72
2022/10/12 03:58:21;;;;;;;8.80;4.17;;;13.00;99.90;;;;;;5039148;28;20214;-72
2022/10/12 04:00:52;;;;;;;9.27;5.20;;;13.00;99.90;;;;;;5036581;28;20222;-72
2022/10/12 04:03:17;;;;;;;13.63;4.67;;;13.00;99.90;;;;;;5026927;28;20180;-71
2022/10/12 04:05:43;;;;;;;10.30;4.90;;;12.90;99.90;;;;;;5035661;28;20476;-71
2022/10/12 04:08:08;;;;;;;10.87;4.57;;;12.90;99.90;;;;;;5036718;28;20177;-71
2022/10/12 04:10:34;;;;;;;7.90;4.60;;;12.90;99.90;;;;;;5034031;28;20205;-71
2022/10/12 04:13:00;;;;;;;7.70;4.63;;;12.90;99.90;;;;;;5043801;28;20331;-73
2022/10/12 04:15:25;;;;;;;9.80;4.90;;;12.90;99.90;;;;;;5035824;28;20184;-69
2022/10/12 04:17:52;;;;;;;10.90;4.80;;;12.90;99.90;;;;;;5006027;28;20238;-73
2022/10/12 04:20:17;;;;;;;9.43;4.03;;;12.80;99.90;;;;;;5023881;28;20206;-72
2022/10/12 04:22:43;;;;;;;11.00;4.90;;;12.90;99.90;;;;;;5037889;28;21175;-73
2022/10/12 04:25:10;;;;;;;10.73;4.23;;;12.80;99.90;;;;;;5033409;28;20481;-71
2022/10/12 04:27:36;;;;;;;9.93;4.30;;;12.80;99.90;;;;;;5031124;28;21536;-72
2022/10/12 04:30:01;;;;;;;9.83;4.10;;;12.80;99.90;;;;;;5034560;28;20451;-71
2022/10/12 04:32:27;;;;;;;10.67;4.70;;;12.80;99.90;;;;;;5018989;28;20278;-72
2022/10/12 04:34:52;;;;;;;6.70;4.57;;;12.80;99.90;;;;;;5033574;28;20179;-72
2022/10/12 04:37:18;;;;;;;17.70;5.03;;;12.80;99.90;;;;;;5036646;28;20337;-72
2022/10/12 04:39:44;;;;;;;13.57;4.40;;;12.80;99.90;;;;;;5028115;28;20729;-74
2022/10/12 04:42:09;;;;;;;13.33;4.30;;;12.80;99.90;;;;;;5034941;28;20278;-70
2022/10/12 04:44:35;;;;;;;7.60;4.33;;;12.80;99.90;;;;;;5037499;28;20207;-71
2022/10/12 04:47:01;;;;;;;7.13;4.67;;;12.70;99.90;;;;;;5032049;28;20866;-70
2022/10/12 04:49:26;;;;;;;8.07;5.10;;;12.80;99.90;;;;;;5031947;28;20204;-72
2022/10/12 04:51:52;;;;;;;9.20;4.57;;;12.80;99.90;;;;;;5032855;28;20438;-71
2022/10/12 04:54:17;;;;;;;9.47;4.37;;;12.80;99.90;;;;;;5033499;28;20228;-72
2022/10/12 04:56:43;;;;;;;12.83;4.87;;;12.80;99.90;;;;;;5027884;28;20191;-70
2022/10/12 04:59:08;;;;;;;9.63;5.17;;;12.80;99.90;;;;;;5032636;28;20203;-73
2022/10/12 05:01:34;;;;;;;10.37;5.20;;;12.70;99.90;;;;;;5036157;28;20730;-68
2022/10/12 05:03:59;;;;;;;8.40;4.40;;;12.80;99.90;;;;;;5034254;28;20738;-71
2022/10/12 05:06:25;;;;;;;9.60;4.80;;;12.80;99.90;;;;;;5034669;28;20237;-70
2022/10/12 05:08:51;;;;;;;9.23;5.17;;;12.80;99.90;;;;;;5019606;28;20226;-73
2022/10/12 05:11:16;;;;;;;9.20;4.70;;;12.80;99.90;;;;;;5031781;28;20226;-71
2022/10/12 05:13:42;;;;;;;11.40;4.70;;;12.80;99.90;;;;;;5035034;28;20760;-69
2022/10/12 05:16:08;;;;;;;17.33;5.47;;;12.80;99.90;;;;;;5034779;28;20558;-69
2022/10/12 05:18:33;;;;;;;9.83;4.97;;;12.80;99.90;;;;;;5031794;28;20176;-71
2022/10/12 05:20:59;;;;;;;10.30;5.33;;;12.80;99.90;;;;;;5023422;28;20773;-71
2022/10/12 05:23:24;;;;;;;7.73;5.37;;;12.70;99.90;;;;;;5038228;28;20180;-71
2022/10/12 05:25:50;;;;;;;11.37;5.20;;;12.80;99.90;;;;;;5033773;28;20237;-69
2022/10/12 05:28:15;;;;;;;8.73;4.93;;;12.80;99.90;;;;;;5029214;28;20180;-71
2022/10/12 05:30:41;;;;;;;16.23;5.60;;;12.80;99.90;;;;;;5030642;28;20884;-70
2022/10/12 05:33:07;;;;;;;9.40;4.97;;;12.80;99.90;;;;;;5014660;28;20647;-70
2022/10/12 05:35:32;;;;;;;14.93;5.87;;;12.70;99.90;;;;;;5036223;28;20215;-70
2022/10/12 05:37:58;;;;;;;14.13;4.90;;;12.70;99.90;;;;;;5033631;28;20184;-70
2022/10/12 05:40:23;;;;;;;8.97;4.43;;;12.70;99.90;;;;;;5032550;28;20204;-71
2022/10/12 05:42:49;;;;;;;11.40;5.20;;;12.70;99.90;;;;;;5033160;28;20172;-70
2022/10/12 05:45:14;;;;;;;8.47;5.03;;;12.70;99.90;;;;;;5018680;28;20226;-71
2022/10/12 05:47:40;;;;;;;10.93;5.80;;;12.70;99.90;;;;;;5023845;28;20188;-72
2022/10/12 05:50:06;;;;;;;7.53;4.77;;;12.60;99.90;;;;;;5036824;28;20208;-71
2022/10/12 05:52:32;;;;;;;10.23;6.43;;;12.60;99.90;;;;;;5020027;28;20571;-70
2022/10/12 05:54:57;;;;;;;12.37;4.60;;;12.60;99.90;;;;;;5035889;28;20506;-69
2022/10/12 05:57:23;;;;;;;11.70;5.50;;;12.60;99.90;;;;;;5036807;28;20180;-71
2022/10/12 05:59:48;;;;;;;10.70;5.07;;;12.60;99.90;;;;;;5038954;28;20214;-69
2022/10/12 06:02:16;;;;;;;11.83;5.20;;;12.60;99.90;;;;;;5037694;28;20188;-70
2022/10/12 06:04:41;;;;;;;10.60;5.40;;;12.60;99.90;;;;;;5034799;28;20277;-69
2022/10/12 06:07:07;;;;;;;8.00;5.17;;;12.60;99.90;;;;;;5035273;28;20454;-70
2022/10/12 06:09:33;;;;;;;11.00;5.80;;;12.70;99.90;;;;;;5034450;28;20236;-71
2022/10/12 06:11:59;;;;;;;8.17;4.60;;;12.70;99.90;;;;;;5033049;28;20615;-70
2022/10/12 06:14:24;;;;;;;15.17;6.27;;;12.70;99.90;;;;;;5028683;28;20448;-70
2022/10/12 06:16:50;;;;;;;10.27;5.30;;;12.80;99.90;;;;;;5031373;28;20589;-70
2022/10/12 06:19:16;;;;;;;16.53;5.57;;;12.80;99.90;;;;;;5031779;28;20306;-71
2022/10/12 06:21:41;;;;;;;9.33;5.37;;;12.80;99.90;;;;;;5031893;28;20210;-73
2022/10/12 06:24:07;;;;;;;10.80;4.70;;;12.90;99.90;;;;;;5030926;28;20826;-71
2022/10/12 06:26:33;;;;;;;14.20;5.23;;;12.90;99.90;;;;;;5029373;28;20671;-70
2022/10/12 06:28:59;;;;;;;8.80;4.50;;;13.00;99.90;;;;;;5035690;28;20282;-69
2022/10/12 06:31:25;;;;;;;7.00;4.43;;;13.10;99.90;;;;;;5026161;28;21415;-70
2022/10/12 06:33:52;;;;;;;9.43;5.10;;;13.10;99.90;;;;;;5032379;28;20427;-72
2022/10/12 06:36:18;;;;;;;9.33;4.97;;;13.10;99.90;;;;;;5033279;28;20438;-72
2022/10/12 06:38:43;;;;;;;10.30;4.93;;;13.20;99.90;;;;;;5034785;28;22186;-72
2022/10/12 06:41:09;;;;;;;9.93;4.50;;;13.20;99.90;;;;;;5027672;28;20176;-73
2022/10/12 06:43:34;;;;;;;12.00;4.93;;;13.20;99.90;;;;;;5035229;28;20183;-71
2022/10/12 06:46:01;;;;;;;7.67;4.73;;;13.30;99.90;;;;;;5025661;28;20186;-70
2022/10/12 06:48:27;;;;;;;13.67;5.00;;;13.30;99.90;;;;;;5028755;28;20203;-74
2022/10/12 06:50:53;;;;;;;13.70;4.93;;;13.30;99.90;;;;;;5015808;28;20431;-72
2022/10/12 06:53:19;;;;;;;10.97;4.77;;;13.30;99.90;;;;;;5034099;28;20434;-72
2022/10/12 06:55:44;;;;;;;9.80;5.00;;;13.40;99.90;;;;;;5033712;28;20185;-70
2022/10/12 06:58:10;;;;;;;10.83;4.70;;;13.40;99.90;;;;;;5011354;28;20508;-70
2022/10/12 07:00:36;;;;;;;12.30;4.93;;;13.50;99.90;;;;;;5009933;28;20200;-71
2022/10/12 07:03:02;;;;;;;8.60;4.50;;;13.50;99.90;;;;;;5032198;28;20188;-70
2022/10/12 07:05:27;;;;;;;9.50;5.07;;;13.50;99.90;;;;;;5030678;28;20398;-70
2022/10/12 07:07:54;;;;;;;15.27;5.37;;;13.60;99.90;;;;;;5036295;28;20180;-70
2022/10/12 07:10:19;;;;;;;10.00;4.90;;;13.60;99.90;;;;;;5038271;28;20220;-71
2022/10/12 07:12:45;;;;;;;7.27;4.50;;;13.70;99.90;;;;;;5035267;28;20481;-73
2022/10/12 07:15:11;;;;;;;10.97;4.60;;;13.70;99.90;;;;;;5037301;28;20652;-70
2022/10/12 07:17:36;;;;;;;14.77;5.27;;;13.70;99.90;;;;;;5037783;28;20224;-70
2022/10/12 07:20:02;;;;;;;12.93;5.20;;;13.80;99.90;;;;;;5038656;28;20207;-69
2022/10/12 07:22:28;;;;;;;10.37;4.80;;;13.80;99.90;;;;;;5035904;28;20202;-70
2022/10/12 07:24:53;;;;;;;10.20;5.07;;;13.80;99.90;;;;;;5039147;28;20508;-71
2022/10/12 07:27:19;;;;;;;7.43;5.60;;;13.80;99.90;;;;;;5034447;28;20902;-69
2022/10/12 07:29:45;;;;;;;13.90;5.53;;;13.90;99.90;;;;;;5039094;28;20700;-72
2022/10/12 07:32:10;;;;;;;12.23;6.23;;;13.90;99.90;;;;;;5039660;28;20238;-72
2022/10/12 07:34:36;;;;;;;9.50;4.90;;;13.90;99.90;;;;;;5037269;28;20186;-72
2022/10/12 07:37:01;;;;;;;11.70;5.50;;;13.90;99.90;;;;;;5016915;28;22170;-70
2022/10/12 07:39:28;;;;;;;12.27;5.77;;;14.00;99.90;;;;;;5032936;28;20322;-71
2022/10/12 07:41:54;;;;;;;16.80;5.63;;;14.00;99.90;;;;;;5042043;28;20524;-70
2022/10/12 07:44:21;;;;;;;11.80;6.30;;;14.00;99.90;;;;;;5035120;28;20207;-70
2022/10/12 07:46:47;;;;;;;16.87;6.77;;;14.00;99.90;;;;;;5032560;28;21042;-70
2022/10/12 07:49:14;;;;;;;17.63;7.57;;;14.00;99.90;;;;;;5045347;28;20998;-73
2022/10/12 07:51:40;;;;;;;18.47;7.47;;;14.00;99.90;;;;;;5032600;28;20418;-70
2022/10/12 07:54:06;;;;;;;15.53;7.77;;;14.00;99.90;;;;;;5037206;28;20435;-70
2022/10/12 07:56:32;;;;;;;12.13;6.63;;;14.00;99.90;;;;;;5035391;28;20817;-71
2022/10/12 07:58:58;;;;;;;13.63;7.10;;;14.00;99.90;;;;;;5039080;28;20768;-71
2022/10/12 08:01:26;;;;;;;14.90;8.60;;;13.90;99.90;;;;;;5039197;28;20425;-72
2022/10/12 08:03:53;;;;;;;13.83;7.33;;;13.90;99.90;;;;;;5043050;28;20212;-69
2022/10/12 08:06:22;;;;;;;18.07;8.40;;;13.90;99.90;;;;;;5036857;28;20431;-70
2022/10/12 08:08:48;;;;;;;14.43;7.43;;;13.90;99.90;;;;;;5042185;28;20453;-70
2022/10/12 08:11:15;;;;;;;12.07;8.17;;;13.90;99.90;;;;;;5026270;28;20952;-71
2022/10/12 08:13:41;;;;;;;22.37;8.10;;;13.90;99.90;;;;;;5042587;28;20505;-71
2022/10/12 08:16:19;;;;;;;15.97;7.40;;;13.90;99.90;;;;;;5038423;28;21075;-71
2022/10/12 08:18:45;;;;;;;30.07;10.03;;;13.90;99.90;;;;;;5037931;28;20234;-71
2022/10/12 08:21:12;;;;;;;18.87;8.00;;;13.90;99.90;;;;;;5017124;28;20448;-69
2022/10/12 08:23:38;;;;;;;16.90;8.60;;;13.90;99.90;;;;;;5037266;28;20516;-71
2022/10/12 08:26:04;;;;;;;17.20;7.97;;;13.90;99.90;;;;;;5031871;28;20538;-70
2022/10/12 08:28:30;;;;;;;21.30;8.90;;;14.00;99.90;;;;;;5034198;28;21256;-72
2022/10/12 08:30:56;;;;;;;21.03;8.20;;;14.00;99.90;;;;;;5035456;28;20443;-72
2022/10/12 08:33:21;;;;;;;16.43;8.47;;;14.00;99.90;;;;;;5038757;28;20449;-69
2022/10/12 08:35:48;;;;;;;16.67;8.30;;;14.00;99.90;;;;;;5034778;28;20313;-69
2022/10/12 08:38:14;;;;;;;16.27;8.10;;;14.00;99.90;;;;;;5033122;28;20203;-70
2022/10/12 08:40:42;;;;;;;20.63;9.13;;;14.00;99.90;;;;;;5038095;28;20833;-71
2022/10/12 08:43:34;;;;;;;24.57;9.17;;;14.00;99.90;;;;;;5018115;28;20438;-71
2022/10/12 08:46:02;;;;;;;17.17;8.17;;;14.10;99.90;;;;;;5019954;28;21215;-70
2022/10/12 08:48:34;;;;;;;18.33;9.60;;;14.10;99.90;;;;;;5018876;28;20443;-70
2022/10/12 08:51:13;;;;;;;18.20;9.07;;;14.20;99.90;;;;;;5038285;28;21039;-71
2022/10/12 08:54:05;;;;;;;15.20;9.00;;;14.20;99.90;;;;;;5039333;28;20478;-72
2022/10/12 08:56:33;;;;;;;20.23;9.60;;;14.30;99.90;;;;;;5031840;28;20520;-70
2022/10/12 08:59:01;;;;;;;18.13;8.73;;;14.30;99.90;;;;;;5030704;28;20584;-71
2022/10/12 09:01:37;;;;;;;15.93;9.40;;;14.40;99.90;;;;;;5035702;28;20506;-70
2022/10/12 09:04:58;;;;;;;18.60;9.53;;;14.40;99.90;;;;;;5031158;28;20466;-70
2022/10/12 09:07:37;;;;;;;14.43;10.00;;;14.50;99.90;;;;;;4973389;28;20445;-71
2022/10/12 09:10:21;;;;;;;20.60;9.17;;;14.50;99.90;;;;;;4977730;28;20448;-71
2022/10/12 09:13:08;;;;;;;17.93;8.70;;;14.60;99.90;;;;;;5021843;28;20488;-71
2022/10/12 09:15:55;;;;;;;29.27;9.73;;;14.60;99.90;;;;;;5030287;28;20431;-71
2022/10/12 09:18:38;;;;;;;21.50;10.00;;;14.70;99.90;;;;;;5033617;28;20568;-70
2022/10/12 09:21:07;;;;;;;20.30;9.90;;;14.70;99.90;;;;;;5034161;28;20777;-71
2022/10/12 09:23:41;;;;;;;17.57;10.03;;;14.80;99.90;;;;;;5021720;28;20986;-71
2022/10/12 09:26:12;;;;;;;16.40;10.07;;;14.80;99.90;;;;;;5030902;28;20492;-72
2022/10/12 09:28:49;;;;;;;17.27;10.07;;;14.80;99.90;;;;;;5033237;28;20434;-72
2022/10/12 09:31:55;;;;;;;19.27;9.53;;;14.90;99.90;;;;;;5034205;28;20521;-71
2022/10/12 09:34:23;;;;;;;14.97;9.80;;;14.90;99.90;;;;;;5037564;28;20449;-71
2022/10/12 09:36:49;;;;;;;19.30;10.00;;;15.00;99.90;;;;;;5037305;28;21216;-70
2022/10/12 09:39:20;;;;;;;24.13;9.70;;;15.00;99.90;;;;;;5032888;28;20459;-71
2022/10/12 09:41:48;;;;;;;16.47;9.97;;;15.10;99.90;;;;;;5034011;28;20659;-71
2022/10/12 09:44:42;;;;;;;17.80;10.80;;;15.10;99.90;;;;;;5038194;28;20458;-71
2022/10/12 09:47:20;;;;;;;17.33;10.07;;;15.20;99.90;;;;;;5029939;28;20713;-71
2022/10/12 09:49:51;;;;;;;14.47;9.83;;;15.30;99.90;;;;;;5019773;28;20430;-71
2022/10/12 09:52:21;;;;;;;15.80;9.57;;;15.40;99.90;;;;;;5013829;28;20833;-71
2022/10/12 09:54:56;;;;;;;26.37;10.20;;;15.30;99.90;;;;;;5034323;28;20473;-70
2022/10/12 09:57:29;;;;;;;23.93;10.00;;;15.40;99.90;;;;;;5036125;28;20452;-72
2022/10/12 09:59:56;;;;;;;17.13;10.90;;;15.40;99.90;;;;;;5032372;28;20458;-71
2022/10/12 10:02:23;;;;;;;20.10;10.50;;;15.40;99.90;;;;;;5032703;28;20438;-71
2022/10/12 10:04:50;;;;;;;17.07;10.17;;;15.50;99.90;;;;;;5037677;28;21194;-71
2022/10/12 10:07:32;;;;;;;16.67;10.00;;;15.60;99.90;;;;;;5033025;28;20445;-71
2022/10/12 10:10:20;;;;;;;14.87;9.93;;;15.70;99.90;;;;;;5022180;28;20442;-71
2022/10/12 10:13:00;;;;;;;22.00;10.63;;;15.70;99.90;;;;;;5029738;28;20447;-70
2022/10/12 10:15:39;;;;;;;15.73;10.63;;;15.70;99.90;;;;;;5032670;28;20449;-70
2022/10/12 10:18:18;;;;;;;16.47;9.70;;;15.80;99.90;;;;;;5033907;28;20443;-71
2022/10/12 10:20:56;;;;;;;15.53;11.30;;;15.90;99.90;;;;;;5033162;28;20484;-69
2022/10/12 10:23:27;;;;;;;18.70;10.57;;;16.00;99.90;;;;;;5033768;28;20868;-70
2022/10/12 10:26:01;;;;;;;18.37;11.20;;;15.90;99.90;;;;;;5033287;28;20463;-72
2022/10/12 10:28:29;;;;;;;17.60;11.10;;;15.90;99.90;;;;;;5021609;28;20438;-70
2022/10/12 10:30:57;;;;;;;17.57;10.73;;;16.10;99.90;;;;;;5029893;28;20477;-68
2022/10/12 10:33:23;;;;;;;20.23;10.93;;;16.00;99.90;;;;;;5034032;28;20442;-70
2022/10/12 10:36:01;;;;;;;16.23;10.37;;;16.20;99.90;;;;;;5029732;28;20477;-70
2022/10/12 10:38:31;;;;;;;18.43;10.87;;;16.30;99.90;;;;;;5033906;28;20184;-70
2022/10/12 10:40:59;;;;;;;18.70;11.30;;;16.30;99.90;;;;;;5029553;28;20457;-70
2022/10/12 10:43:27;;;;;;;17.93;10.37;;;16.40;99.90;;;;;;5034651;28;20461;-70
2022/10/12 10:46:02;;;;;;;20.37;10.50;;;16.40;99.90;;;;;;5032152;28;20895;-72
2022/10/12 10:48:50;;;;;;;13.47;10.10;;;16.60;99.90;;;;;;5009881;28;20507;-69
2022/10/12 10:51:16;;;;;;;19.10;10.27;;;16.60;99.90;;;;;;5021012;28;20910;-69
2022/10/12 10:53:47;;;;;;;18.80;11.00;;;16.70;99.90;;;;;;5031422;28;20553;-71
2022/10/12 10:56:27;;;;;;;21.73;15.30;;;16.60;99.90;;;;;;5034051;28;20191;-73
2022/10/12 10:58:56;;;;;;;15.37;10.93;;;16.80;99.90;;;;;;5030709;28;20468;-70
2022/10/12 11:01:25;;;;;;;18.77;11.60;;;16.80;99.90;;;;;;5032308;28;21003;-72
2022/10/12 11:04:00;;;;;;;20.70;13.13;;;17.00;99.90;;;;;;5028807;28;20983;-71
2022/10/12 11:06:40;;;;;;;18.90;10.77;;;16.90;99.90;;;;;;5030095;28;20468;-71
2022/10/12 11:09:31;;;;;;;17.03;11.63;;;16.90;99.90;;;;;;5030164;28;20485;-71
2022/10/12 11:12:06;;;;;;;16.10;10.77;;;17.00;99.90;;;;;;5003317;28;20446;-70
2022/10/12 11:14:52;;;;;;;15.77;11.30;;;17.00;99.90;;;;;;5032075;28;20439;-71
2022/10/12 11:17:41;;;;;;;19.83;10.40;;;17.10;99.90;;;;;;5033515;28;20451;-72
2022/10/12 11:20:28;;;;;;;15.00;10.67;;;17.20;99.90;;;;;;5029003;28;20457;-72
2022/10/12 11:23:02;;;;;;;16.40;10.30;;;17.40;99.90;;;;;;5028154;28;20446;-72
2022/10/12 11:25:38;;;;;;;13.80;10.37;;;17.40;99.90;;;;;;5032951;28;20622;-70
2022/10/12 11:28:06;;;;;;;13.73;10.43;;;17.50;99.90;;;;;;5030704;28;20449;-71
2022/10/12 11:30:39;;;;;;;23.60;13.30;;;17.60;99.90;;;;;;5013385;28;20465;-71
2022/10/12 11:33:12;;;;;;;19.20;11.50;;;17.70;99.90;;;;;;5026831;28;21055;-72
2022/10/12 11:35:42;;;;;;;16.37;11.23;;;17.80;99.90;;;;;;5025843;28;20522;-74
2022/10/12 11:38:21;;;;;;;25.17;10.50;;;18.00;99.90;;;;;;5027348;28;20995;-76
2022/10/12 11:41:07;;;;;;;14.73;10.10;;;18.20;99.90;;;;;;5030506;28;20534;-76
2022/10/12 11:43:40;;;;;;;14.50;10.30;;;18.40;99.90;;;;;;5029758;28;20535;-73
2022/10/12 11:46:12;;;;;;;16.47;10.97;;;18.60;99.90;;;;;;5011883;28;20452;-72
2022/10/12 11:48:45;;;;;;;19.03;11.50;;;19.20;99.90;;;;;;5025364;28;20525;-72
2022/10/12 11:51:11;;;;;;;13.73;10.50;;;19.80;99.90;;;;;;5029495;28;20473;-70
2022/10/12 11:53:42;;;;;;;17.83;9.63;;;20.40;99.90;;;;;;5029990;28;20900;-70
2022/10/12 11:56:18;;;;;;;18.60;10.30;;;20.90;99.90;;;;;;5036447;28;20181;-73
2022/10/12 11:58:45;;;;;;;13.30;9.33;;;21.50;99.90;;;;;;5037518;28;20414;-71
2022/10/12 12:01:31;;;;;;;14.07;9.73;;;22.00;99.90;;;;;;5033548;28;21162;-70
2022/10/12 12:04:24;;;;;;;13.43;10.20;;;22.50;99.90;;;;;;5015100;28;20431;-72
2022/10/12 12:06:52;;;;;;;16.57;10.17;;;22.80;99.90;;;;;;5034544;28;20414;-72
2022/10/12 12:09:38;;;;;;;15.70;10.60;;;23.20;99.90;;;;;;5019329;28;20466;-73
2022/10/12 12:12:25;;;;;;;14.67;10.00;;;23.20;99.90;;;;;;5019758;28;20426;-72
2022/10/12 12:14:53;;;;;;;11.17;9.30;;;23.30;99.90;;;;;;5036238;28;21265;-71
2022/10/12 12:17:19;;;;;;;13.67;10.00;;;23.50;99.90;;;;;;5032713;28;20816;-72
2022/10/12 12:19:49;;;;;;;12.90;8.60;;;23.60;99.90;;;;;;5025763;28;20462;-71
2022/10/12 12:22:19;;;;;;;13.13;9.87;;;23.90;99.90;;;;;;5027383;28;20206;-72
2022/10/12 12:25:13;;;;;;;11.67;9.73;;;24.10;99.90;;;;;;5023520;28;20458;-71
2022/10/12 12:27:44;;;;;;;15.97;9.70;;;24.20;99.90;;;;;;5024328;28;20435;-72
2022/10/12 12:30:23;;;;;;;16.53;9.37;;;24.40;99.90;;;;;;5023773;28;20540;-71
2022/10/12 12:33:04;;;;;;;15.57;10.07;;;24.60;99.90;;;;;;5028260;28;20446;-72
2022/10/12 12:35:49;;;;;;;14.03;8.50;;;24.80;99.90;;;;;;5017679;28;20466;-71
2022/10/12 12:38:21;;;;;;;14.47;9.00;;;25.00;99.90;;;;;;5034751;28;20422;-70
2022/10/12 12:41:09;;;;;;;12.37;7.97;;;25.20;99.90;;;;;;5018576;28;21032;-70
2022/10/12 12:43:57;;;;;;;9.60;8.23;;;25.30;99.90;;;;;;5031819;28;20426;-71
2022/10/12 12:46:25;;;;;;;12.23;9.10;;;25.40;99.90;;;;;;5033270;28;20569;-70
2022/10/12 12:48:51;;;;;;;13.70;9.23;;;25.60;99.90;;;;;;5033350;28;20459;-71
2022/10/12 12:51:23;;;;;;;12.10;8.83;;;25.70;99.90;;;;;;5017416;28;22415;-72
2022/10/12 12:54:00;;;;;;;17.10;10.80;;;25.90;99.90;;;;;;5030873;28;20283;-72
2022/10/12 12:56:50;;;;;;;12.57;9.27;;;26.00;99.90;;;;;;5030029;28;20894;-70